Aérodrome :
LOGIN :

S'inscrire | Disclaimer

   EN    FR    IT 

 










Légende :    VFR   VFR Marginal   IFR   IFR Intensif   IFR Très Intensif
Visi : 
Plafond : 
>= 8 km
>= 3000ft
5 à 8 km
1000 à 3000 ft
1500m à 5 km
500 à 1000 ft
800 à 1500m
200 à 500 ft
< 800m
< 200 ft
Symboles :   Orages  Brouillard  Fortes neiges  Fortes précipitations  Vent > 20 kt
SIGMETs :   Divers  Orages  Givrage  Turbulence  Onde Orograph.  Cendres Volcan.






- Altitude de l'aérodrome : 616 ft
- Code IATA : PUF


LFBP - Pau

DERNIER METAR :
  • 252030Z AUTO 18003KT 9999 BKN070 13/11 Q1017 NOSIG

METARs EXPIRÉS :
  • 252000Z AUTO 19003KT 9999 OVC068 13/10 Q1017 NOSIG
  • 251930Z AUTO 23003KT 210V280 9999 BKN068 14/11 Q1017 NOSIG
  • 251900Z AUTO VRB03KT 9999 FEW068 13/10 Q1017 NOSIG
  • 251830Z AUTO 29006KT 9999 OVC098 15/10 Q1016 NOSIG
  • 251800Z AUTO 31009KT 9999 OVC096 16/11 Q1016 NOSIG

TAF TAF LFBP
Valide du 25 à 18h jusqu'au 26 à 18h UTC


251700Z 2518/2618 31007KT 9999 SCT040
BECMG 2518/2520 VRB02KT
PROB40
TEMPO 2523/2607 3000 BR
BECMG 2609/2611 28010KT
TEMPO 2614/2618 -SHRA SCT030TCU BKN035



MET'MAP, la Météo Aéronautique d'un coup d'oeil ! - Copyright ORBIFLY Décembre 2007 - Disclaimer

ORBIFLY MET'MAP TEAM :

Programmation & Développement : Alexandra Zaïnal
Sur une idée originale de : Baudouin d'Aumeries
Soutien technique & logistique : Manuel Goepfert
Assistance : Marc-Olivier Méhu




SOURCES & CREDITS :

   NOAA